Terminal Aerodrome Forecast
Issued by NWS

Home | Current Version | Previous Version | Text Only | Print | Product List | Glossary On
Versions: 1 2 3 4 5 6 7 8 9 10 11 12 13 14 15 16 17 18 19 20 21 22 23 24 25
000
FTUS43 KDVN 261500 AAB
TAFBRL
TAF AMD
KBRL 261546Z 2616/2712 25006KT P6SM BKN015 BKN250
     FM261800 21005KT P6SM SCT040 BKN100
      TEMPO 2621/2624 3SM TSRA BKN030CB OVC040
     FM270800 31005KT P6SM SKC=

USA.gov is the U.S. government's official web portal to all federal, state and local government web resources and services.